createdAt,value
2023-03-15T00:01:27.443Z,58.73
2023-03-15T00:03:55.789Z,59.34
2023-03-15T00:06:24.334Z,59.57
2023-03-15T00:08:52.838Z,59.95
2023-03-15T00:11:21.504Z,59.68
2023-03-15T00:13:51.777Z,59.96
2023-03-15T00:16:20.149Z,60.41
2023-03-15T00:18:55.596Z,60.94
2023-03-15T00:21:25.140Z,61.00
2023-03-15T00:23:53.408Z,61.06
2023-03-15T00:26:22.152Z,61.14
2023-03-15T00:28:51.886Z,61.61
2023-03-15T00:31:25.059Z,61.88
2023-03-15T00:33:55.191Z,62.55
2023-03-15T00:36:26.128Z,62.16
2023-03-15T00:38:55.966Z,62.50
2023-03-15T00:41:24.408Z,62.89
2023-03-15T00:43:58.085Z,63.03
2023-03-15T00:46:26.899Z,63.03
2023-03-15T00:48:55.532Z,63.18
2023-03-15T00:51:24.329Z,63.23
2023-03-15T00:53:53.948Z,63.37
2023-03-15T00:56:25.598Z,63.54
2023-03-15T00:58:55.734Z,63.57
2023-03-15T01:01:26.020Z,63.98
2023-03-15T01:03:54.951Z,63.74
2023-03-15T01:06:25.152Z,64.08
2023-03-15T01:08:55.946Z,64.19
2023-03-15T01:11:26.256Z,64.18
2023-03-15T01:13:56.368Z,64.30
2023-03-15T01:16:27.611Z,64.45
2023-03-15T01:18:56.215Z,64.53
2023-03-15T01:21:25.617Z,64.66
2023-03-15T01:23:54.748Z,64.78
2023-03-15T01:26:23.502Z,64.89
2023-03-15T01:28:51.942Z,65.15
2023-03-15T01:31:28.271Z,64.99
2023-03-15T01:33:57.797Z,65.40
2023-03-15T01:36:27.512Z,65.50
2023-03-15T01:38:56.389Z,65.39
2023-03-15T01:41:33.358Z,65.79
2023-03-15T01:44:01.965Z,66.07
2023-03-15T01:46:35.128Z,66.14
2023-03-15T01:49:39.003Z,66.04
2023-03-15T01:52:16.235Z,66.29
2023-03-15T01:55:07.974Z,66.16
2023-03-15T01:57:50.971Z,66.47
2023-03-15T02:00:19.995Z,67.13
2023-03-15T02:02:56.639Z,66.76
2023-03-15T02:05:29.775Z,67.25
2023-03-15T02:07:58.636Z,67.26
2023-03-15T02:10:42.646Z,67.28
2023-03-15T02:13:25.087Z,67.56
2023-03-15T02:15:54.936Z,67.58
2023-03-15T02:18:27.568Z,67.93
2023-03-15T02:21:11.921Z,68.18
2023-03-15T02:23:41.149Z,68.15
2023-03-15T02:26:50.147Z,68.36
2023-03-15T02:29:20.079Z,68.69
2023-03-15T02:31:53.433Z,68.98
2023-03-15T02:34:25.549Z,69.24
2023-03-15T02:36:54.912Z,69.28
2023-03-15T02:39:23.807Z,69.68
2023-03-15T02:41:57.069Z,69.76
2023-03-15T02:44:26.405Z,69.94
2023-03-15T02:46:55.654Z,70.14
2023-03-15T02:49:25.472Z,70.17
2023-03-15T02:51:55.741Z,70.30
2023-03-15T02:54:24.095Z,70.01
2023-03-15T02:56:55.153Z,70.28
2023-03-15T02:59:24.137Z,70.17
2023-03-15T03:01:52.830Z,70.10
2023-03-15T03:04:22.069Z,70.39
2023-03-15T03:06:50.495Z,70.39
2023-03-15T03:09:23.553Z,70.66
2023-03-15T03:11:51.874Z,70.92
2023-03-15T03:14:20.199Z,71.36
2023-03-15T03:16:51.539Z,71.25
2023-03-15T03:19:20.145Z,71.56
2023-03-15T03:21:52.301Z,71.71
2023-03-15T03:24:21.059Z,71.76
2023-03-15T03:26:49.285Z,71.84
2023-03-15T03:29:18.151Z,72.13
2023-03-15T03:31:47.929Z,72.11
2023-03-15T03:34:21.910Z,72.41
2023-03-15T03:36:50.540Z,72.17
2023-03-15T03:39:23.957Z,72.38
2023-03-15T03:41:52.729Z,72.32
2023-03-15T03:44:22.377Z,72.65
2023-03-15T03:46:51.648Z,72.99
2023-03-15T03:49:20.233Z,72.96
2023-03-15T03:51:48.625Z,73.10
2023-03-15T03:54:17.781Z,73.42
2023-03-15T03:56:46.155Z,73.13
2023-03-15T03:59:16.062Z,73.37
2023-03-15T04:01:52.186Z,73.41
2023-03-15T04:04:20.502Z,73.50
2023-03-15T04:06:50.897Z,73.57
2023-03-15T04:09:25.229Z,73.52
2023-03-15T04:12:01.633Z,73.72
2023-03-15T04:14:30.880Z,73.73
2023-03-15T04:16:59.248Z,73.74
2023-03-15T04:19:28.624Z,73.91
2023-03-15T04:21:57.293Z,73.98
2023-03-15T04:24:54.622Z,74.16
2023-03-15T04:27:45.779Z,74.35
2023-03-15T04:30:36.954Z,74.68
2023-03-15T04:33:15.880Z,74.84
2023-03-15T04:35:54.037Z,75.15
2023-03-15T04:38:38.135Z,75.59
2023-03-15T04:41:11.344Z,75.95
2023-03-15T04:43:49.774Z,75.87
2023-03-15T04:46:44.527Z,76.03
2023-03-15T04:49:32.905Z,76.08
2023-03-15T04:52:11.637Z,76.06
2023-03-15T04:55:17.615Z,76.07
2023-03-15T04:58:22.263Z,75.92
2023-03-15T05:01:17.030Z,76.09
2023-03-15T05:04:05.516Z,75.93
2023-03-15T05:06:55.831Z,75.38
2023-03-15T05:10:03.173Z,75.52
2023-03-15T05:12:54.929Z,75.33
2023-03-15T05:15:41.842Z,74.82
2023-03-15T05:18:22.126Z,74.80
2023-03-15T05:21:07.996Z,74.65
2023-03-15T05:23:55.455Z,74.45
2023-03-15T05:26:30.319Z,74.27
2023-03-15T05:29:18.942Z,74.27
2023-03-15T05:32:18.377Z,73.63
2023-03-15T05:35:16.576Z,72.71
2023-03-15T05:38:06.061Z,72.75
2023-03-15T05:40:47.614Z,72.29
2023-03-15T05:43:45.247Z,72.21
2023-03-15T05:46:41.448Z,72.13
2023-03-15T05:49:29.737Z,72.28
2023-03-15T05:52:10.725Z,72.74
2023-03-15T05:54:49.182Z,72.81
2023-03-15T05:57:48.545Z,72.95
2023-03-15T06:00:36.305Z,73.37
2023-03-15T06:03:07.194Z,73.45
2023-03-15T06:05:59.382Z,74.03
2023-03-15T06:08:35.309Z,74.21
2023-03-15T06:11:07.245Z,74.25
2023-03-15T06:13:35.710Z,74.37
2023-03-15T06:16:11.167Z,74.32
2023-03-15T06:18:43.292Z,74.56
2023-03-15T06:21:17.464Z,73.91
2023-03-15T06:23:48.890Z,73.79
2023-03-15T06:26:19.685Z,73.98
2023-03-15T06:28:48.449Z,73.93
2023-03-15T06:31:20.007Z,73.82
2023-03-15T06:33:53.925Z,74.02
2023-03-15T06:36:25.094Z,74.37
2023-03-15T06:38:54.741Z,73.98
2023-03-15T06:41:23.356Z,74.07
2023-03-15T06:43:59.744Z,73.65
2023-03-15T06:46:28.885Z,73.31
2023-03-15T06:48:57.428Z,72.46
2023-03-15T06:51:29.284Z,71.77
2023-03-15T06:53:57.595Z,70.69
2023-03-15T06:56:27.737Z,69.41
2023-03-15T06:58:56.121Z,68.60
2023-03-15T07:01:27.649Z,68.40
2023-03-15T07:03:56.237Z,67.52
2023-03-15T07:06:24.615Z,67.37
2023-03-15T07:08:54.401Z,66.93
2023-03-15T07:11:22.648Z,66.63
2023-03-15T07:13:50.851Z,66.27
2023-03-15T07:16:19.050Z,65.97
2023-03-15T07:18:48.891Z,65.92
2023-03-15T07:21:18.890Z,65.34
2023-03-15T07:23:47.794Z,64.70
2023-03-15T07:26:16.149Z,64.15
2023-03-15T07:28:50.604Z,63.32
2023-03-15T07:31:19.289Z,62.49
2023-03-15T07:33:47.478Z,61.27
2023-03-15T07:36:17.023Z,61.63
2023-03-15T07:38:46.836Z,61.84
2023-03-15T07:41:18.416Z,61.72
2023-03-15T07:43:58.547Z,61.48
2023-03-15T07:46:26.981Z,61.14
2023-03-15T07:48:55.235Z,60.53
2023-03-15T07:51:23.769Z,60.02
2023-03-15T07:53:52.195Z,59.33
2023-03-15T07:56:20.519Z,58.89
2023-03-15T07:58:48.727Z,58.90
2023-03-15T08:01:18.737Z,58.42
2023-03-15T08:03:48.707Z,57.51
2023-03-15T08:06:18.704Z,57.45
2023-03-15T08:08:51.444Z,57.37
2023-03-15T08:11:19.698Z,56.94
2023-03-15T08:13:52.383Z,57.00
2023-03-15T08:16:20.896Z,56.78
2023-03-15T08:18:51.125Z,55.64
2023-03-15T08:21:19.856Z,54.75
2023-03-15T08:23:48.178Z,54.14
2023-03-15T08:26:17.071Z,53.95
2023-03-15T08:28:46.460Z,53.91
2023-03-15T08:31:14.845Z,53.78
2023-03-15T08:33:43.185Z,53.99
2023-03-15T08:36:12.479Z,53.84
2023-03-15T08:38:42.849Z,53.68
2023-03-15T08:41:11.451Z,53.66
2023-03-15T08:43:39.622Z,53.64
2023-03-15T08:46:08.084Z,53.63
2023-03-15T08:48:37.030Z,53.32
2023-03-15T08:51:06.303Z,53.11
2023-03-15T08:53:35.558Z,52.83
2023-03-15T08:56:04.764Z,52.55
2023-03-15T08:58:34.734Z,52.62
2023-03-15T09:01:05.057Z,52.59
2023-03-15T09:03:35.813Z,52.16
2023-03-15T09:06:04.105Z,52.50
2023-03-15T09:08:33.851Z,52.63
2023-03-15T09:11:02.337Z,52.69
2023-03-15T09:13:31.204Z,52.69
2023-03-15T09:16:00.887Z,52.67
2023-03-15T09:18:30.525Z,52.45
2023-03-15T09:20:59.056Z,52.56
2023-03-15T09:23:33.965Z,52.75
2023-03-15T09:26:02.415Z,52.79
2023-03-15T09:28:32.890Z,53.57
2023-03-15T09:31:05.023Z,53.96
2023-03-15T09:33:33.416Z,54.15
2023-03-15T09:36:01.887Z,54.08
2023-03-15T09:38:31.558Z,54.44
2023-03-15T09:41:00.542Z,54.68
2023-03-15T09:43:42.927Z,54.22
2023-03-15T09:46:17.982Z,53.96
2023-03-15T09:49:07.544Z,53.87
2023-03-15T09:51:55.642Z,53.58
2023-03-15T09:54:29.522Z,52.99
2023-03-15T09:56:58.095Z,52.89
2023-03-15T09:59:36.109Z,52.95
2023-03-15T10:02:40.426Z,52.82
2023-03-15T10:05:16.896Z,52.29
2023-03-15T10:07:46.988Z,51.51
2023-03-15T10:10:19.534Z,51.43
2023-03-15T10:13:16.869Z,50.68
2023-03-15T10:16:00.281Z,50.81
2023-03-15T10:18:28.900Z,50.40
2023-03-15T10:21:04.793Z,50.02
2023-03-15T10:23:55.336Z,49.92
2023-03-15T10:26:28.437Z,49.40
2023-03-15T10:28:56.872Z,49.34
2023-03-15T10:31:36.958Z,48.79
2023-03-15T10:34:11.689Z,48.60
2023-03-15T10:36:49.406Z,48.73
2023-03-15T10:39:19.484Z,47.95
2023-03-15T10:41:48.835Z,47.33
2023-03-15T10:44:24.850Z,46.88
2023-03-15T10:47:22.185Z,47.38
2023-03-15T10:49:58.718Z,47.65
2023-03-15T10:52:28.473Z,47.53
2023-03-15T10:55:02.447Z,47.09
2023-03-15T10:57:35.930Z,46.90
2023-03-15T11:00:27.889Z,46.33
2023-03-15T11:03:08.231Z,46.01
2023-03-15T11:05:51.223Z,45.76
2023-03-15T11:08:44.584Z,45.79
2023-03-15T11:11:12.871Z,45.93
2023-03-15T11:14:08.327Z,45.29
2023-03-15T11:16:38.772Z,45.32
2023-03-15T11:19:12.704Z,46.11
2023-03-15T11:21:41.420Z,46.00
2023-03-15T11:24:12.851Z,45.41
2023-03-15T11:26:41.156Z,46.01
2023-03-15T11:29:33.113Z,46.40
2023-03-15T11:32:02.671Z,46.50
2023-03-15T11:34:35.690Z,46.79
2023-03-15T11:37:11.560Z,46.99
2023-03-15T11:39:50.312Z,47.58
2023-03-15T11:42:53.673Z,48.47
2023-03-15T11:45:31.793Z,49.23
2023-03-15T11:48:42.621Z,49.80
2023-03-15T11:51:11.794Z,50.33
2023-03-15T11:53:59.151Z,50.87
2023-03-15T11:56:29.412Z,51.67
2023-03-15T11:59:11.019Z,52.31
2023-03-15T12:01:45.946Z,53.15
2023-03-15T12:04:29.176Z,53.58
2023-03-15T12:07:04.599Z,54.02
2023-03-15T12:09:32.951Z,54.19
2023-03-15T12:12:24.447Z,54.38
2023-03-15T12:15:07.079Z,54.31
2023-03-15T12:17:51.030Z,54.28
2023-03-15T12:20:21.242Z,54.56
2023-03-15T12:22:51.960Z,54.33
2023-03-15T12:25:39.497Z,54.22
2023-03-15T12:28:37.448Z,54.42
2023-03-15T12:31:08.211Z,54.38
2023-03-15T12:33:50.263Z,54.70
2023-03-15T12:36:44.049Z,54.86
2023-03-15T12:39:18.118Z,54.71
2023-03-15T12:41:50.957Z,54.80
2023-03-15T12:44:22.348Z,54.75
2023-03-15T12:46:50.889Z,54.66
2023-03-15T12:49:24.961Z,54.63
2023-03-15T12:52:02.647Z,54.80
2023-03-15T12:54:49.335Z,55.01
2023-03-15T12:57:22.461Z,54.91
2023-03-15T13:00:15.294Z,54.83
2023-03-15T13:02:44.595Z,54.79
2023-03-15T13:05:36.408Z,55.07
2023-03-15T13:08:13.882Z,54.73
2023-03-15T13:11:16.990Z,54.66
2023-03-15T13:14:16.698Z,54.60
2023-03-15T13:17:06.880Z,54.33
2023-03-15T13:19:42.574Z,53.97
2023-03-15T13:22:49.999Z,53.38
2023-03-15T13:25:35.291Z,52.95
2023-03-15T13:28:07.331Z,52.11
2023-03-15T13:30:40.574Z,52.01
2023-03-15T13:33:08.868Z,52.26
2023-03-15T13:35:45.441Z,52.44
2023-03-15T13:38:28.698Z,52.69
2023-03-15T13:41:13.078Z,53.16
2023-03-15T13:43:44.304Z,53.17
2023-03-15T13:46:19.965Z,53.36
2023-03-15T13:48:49.007Z,53.51
2023-03-15T13:51:37.087Z,52.91
2023-03-15T13:54:15.567Z,52.92
2023-03-15T13:56:49.749Z,52.97
2023-03-15T13:59:18.878Z,52.67
2023-03-15T14:01:47.762Z,52.46
2023-03-15T14:04:17.475Z,52.54
2023-03-15T14:06:48.611Z,52.35
2023-03-15T14:09:22.253Z,52.27
2023-03-15T14:12:07.471Z,52.37
2023-03-15T14:14:50.773Z,52.57
2023-03-15T14:17:27.514Z,52.63
2023-03-15T14:20:10.892Z,53.07
2023-03-15T14:22:41.810Z,53.53
2023-03-15T14:25:22.811Z,53.73
2023-03-15T14:27:51.097Z,53.73
2023-03-15T14:30:24.638Z,53.96
2023-03-15T14:32:59.072Z,54.22
2023-03-15T14:35:30.506Z,54.54
2023-03-15T14:38:09.443Z,55.00
2023-03-15T14:40:39.296Z,55.75
2023-03-15T14:43:08.083Z,56.27
2023-03-15T14:45:38.115Z,56.25
2023-03-15T14:48:28.935Z,55.58
2023-03-15T14:50:57.807Z,54.97
2023-03-15T14:53:26.899Z,54.78
2023-03-15T14:55:56.698Z,54.88
2023-03-15T14:58:25.073Z,54.78
2023-03-15T15:00:58.217Z,54.91
2023-03-15T15:03:41.448Z,55.09
2023-03-15T15:06:12.705Z,55.25
2023-03-15T15:08:45.565Z,55.27
2023-03-15T15:11:14.416Z,55.41
2023-03-15T15:13:45.471Z,55.33
2023-03-15T15:16:14.534Z,55.26
2023-03-15T15:18:43.159Z,55.74
2023-03-15T15:21:23.956Z,55.90
2023-03-15T15:23:58.589Z,56.23
2023-03-15T15:26:29.310Z,56.55
2023-03-15T15:28:57.999Z,56.76
2023-03-15T15:31:27.480Z,56.72
2023-03-15T15:34:04.521Z,56.75
2023-03-15T15:36:35.251Z,57.05
2023-03-15T15:39:07.163Z,57.06
2023-03-15T15:41:35.764Z,57.26
2023-03-15T15:44:16.171Z,57.41
2023-03-15T15:46:45.144Z,57.20
2023-03-15T15:49:13.577Z,57.45
2023-03-15T15:51:46.107Z,57.76
2023-03-15T15:54:40.822Z,58.22
2023-03-15T15:57:11.090Z,58.69
2023-03-15T15:59:39.948Z,58.95
2023-03-15T16:02:17.693Z,59.33
2023-03-15T16:04:46.255Z,59.42
2023-03-15T16:07:15.789Z,59.65
2023-03-15T16:09:44.871Z,59.82
2023-03-15T16:12:14.385Z,60.09
2023-03-15T16:14:44.022Z,60.20
2023-03-15T16:17:22.516Z,60.36
2023-03-15T16:19:53.304Z,60.52
2023-03-15T16:22:22.512Z,60.94
2023-03-15T16:24:53.753Z,61.06
2023-03-15T16:27:23.552Z,61.46
2023-03-15T16:29:53.363Z,61.65
2023-03-15T16:32:36.704Z,62.03
2023-03-15T16:35:15.842Z,62.33
2023-03-15T16:37:45.961Z,62.79
2023-03-15T16:40:23.857Z,63.04
2023-03-15T16:42:53.123Z,63.59
2023-03-15T16:45:21.569Z,64.02
2023-03-15T16:47:56.944Z,64.13
2023-03-15T16:50:25.971Z,64.88
2023-03-15T16:52:55.597Z,65.19
2023-03-15T16:55:28.952Z,65.79
2023-03-15T16:58:03.733Z,66.16
2023-03-15T17:00:32.486Z,66.63
2023-03-15T17:03:01.729Z,66.82
2023-03-15T17:05:32.097Z,67.26
2023-03-15T17:08:01.056Z,67.19
2023-03-15T17:10:31.906Z,67.27
2023-03-15T17:13:01.993Z,67.51
2023-03-15T17:15:30.872Z,67.77
2023-03-15T17:17:59.132Z,67.78
2023-03-15T17:20:29.420Z,68.22
2023-03-15T17:23:04.046Z,68.36
2023-03-15T17:25:33.845Z,68.55
2023-03-15T17:28:03.134Z,68.85
2023-03-15T17:30:33.331Z,68.98
2023-03-15T17:33:04.939Z,69.17
2023-03-15T17:35:38.390Z,69.38
2023-03-15T17:38:07.355Z,69.65
2023-03-15T17:40:36.493Z,69.69
2023-03-15T17:43:05.327Z,69.84
2023-03-15T17:45:34.760Z,70.12
2023-03-15T17:48:04.495Z,70.37
2023-03-15T17:50:33.351Z,70.68
2023-03-15T17:53:03.879Z,71.04
2023-03-15T17:55:35.138Z,71.31
2023-03-15T17:58:06.190Z,71.67
2023-03-15T18:00:35.076Z,71.88
2023-03-15T18:03:04.526Z,72.25
2023-03-15T18:05:33.261Z,72.37
2023-03-15T18:08:04.398Z,72.63
2023-03-15T18:10:38.644Z,72.85
2023-03-15T18:13:07.436Z,73.06
2023-03-15T18:15:37.982Z,73.30
2023-03-15T18:18:08.406Z,73.57
2023-03-15T18:20:37.176Z,73.76
2023-03-15T18:23:07.274Z,73.97
2023-03-15T18:25:35.936Z,74.33
2023-03-15T18:28:04.817Z,74.49
2023-03-15T18:30:33.777Z,74.70
2023-03-15T18:33:03.941Z,74.89
2023-03-15T18:35:33.811Z,75.06
2023-03-15T18:38:04.237Z,75.23
2023-03-15T18:40:33.514Z,75.55
2023-03-15T18:43:05.663Z,75.55
2023-03-15T18:45:36.595Z,75.79
2023-03-15T18:48:16.090Z,76.02
2023-03-15T18:50:45.538Z,76.14
2023-03-15T18:53:16.455Z,76.28
2023-03-15T18:55:44.808Z,76.48
2023-03-15T18:58:13.247Z,76.57
2023-03-15T19:00:42.095Z,76.73
2023-03-15T19:03:11.468Z,77.04
2023-03-15T19:05:39.927Z,77.12
2023-03-15T19:08:08.151Z,77.32
2023-03-15T19:10:37.239Z,77.32
2023-03-15T19:13:05.896Z,77.47
2023-03-15T19:15:34.187Z,77.57
2023-03-15T19:18:02.793Z,77.62
2023-03-15T19:20:32.222Z,77.71
2023-03-15T19:23:01.092Z,77.89
2023-03-15T19:25:29.950Z,78.01
2023-03-15T19:28:02.652Z,77.89
2023-03-15T19:30:32.679Z,78.08
2023-03-15T19:33:01.558Z,78.06
2023-03-15T19:35:32.483Z,78.06
2023-03-15T19:38:02.745Z,78.10
2023-03-15T19:40:40.285Z,78.13
2023-03-15T19:43:10.387Z,78.10
2023-03-15T19:45:38.950Z,78.06
2023-03-15T19:48:07.651Z,78.10
2023-03-15T19:50:35.902Z,78.09
2023-03-15T19:53:09.406Z,78.18
2023-03-15T19:55:37.896Z,78.17
2023-03-15T19:58:06.140Z,78.07
2023-03-15T20:00:34.751Z,78.01
2023-03-15T20:03:03.440Z,77.84
2023-03-15T20:05:32.120Z,77.47
2023-03-15T20:08:02.229Z,77.27
2023-03-15T20:10:31.105Z,76.95
2023-03-15T20:13:00.286Z,76.79
2023-03-15T20:15:29.893Z,76.62
2023-03-15T20:17:58.141Z,76.67
2023-03-15T20:20:26.455Z,76.58
2023-03-15T20:22:55.102Z,76.51
2023-03-15T20:25:25.486Z,76.36
2023-03-15T20:27:53.975Z,76.26
2023-03-15T20:30:22.535Z,76.21
2023-03-15T20:32:53.721Z,76.32
2023-03-15T20:35:21.978Z,76.39
2023-03-15T20:37:53.125Z,76.19
2023-03-15T20:40:21.992Z,76.31
2023-03-15T20:42:57.381Z,76.25
2023-03-15T20:45:25.776Z,76.24
2023-03-15T20:47:54.833Z,76.25
2023-03-15T20:50:23.937Z,76.74
2023-03-15T20:52:54.139Z,77.14
2023-03-15T20:55:23.757Z,77.31
2023-03-15T20:57:53.393Z,77.42
2023-03-15T21:00:23.073Z,77.38
2023-03-15T21:02:53.019Z,77.61
2023-03-15T21:05:22.797Z,77.67
2023-03-15T21:07:51.445Z,77.73
2023-03-15T21:10:19.934Z,77.59
2023-03-15T21:12:48.235Z,77.87
2023-03-15T21:15:24.429Z,77.90
2023-03-15T21:17:53.498Z,77.92
2023-03-15T21:20:22.090Z,78.06
2023-03-15T21:22:53.072Z,78.15
2023-03-15T21:25:21.598Z,78.10
2023-03-15T21:27:49.770Z,77.92
2023-03-15T21:30:18.416Z,78.06
2023-03-15T21:32:47.889Z,78.06
2023-03-15T21:35:22.107Z,78.25
2023-03-15T21:37:50.608Z,78.38
2023-03-15T21:40:18.841Z,78.48
2023-03-15T21:42:47.982Z,78.41
2023-03-15T21:45:16.515Z,78.34
2023-03-15T21:47:49.736Z,78.54
2023-03-15T21:50:18.318Z,78.56
2023-03-15T21:52:46.456Z,78.83
2023-03-15T21:55:15.666Z,79.03
2023-03-15T21:57:45.111Z,79.10
2023-03-15T22:00:20.105Z,79.16
2023-03-15T22:02:48.769Z,79.15
2023-03-15T22:05:17.360Z,79.65
2023-03-15T22:07:46.650Z,80.04
2023-03-15T22:10:15.756Z,80.20
2023-03-15T22:12:44.792Z,80.47
2023-03-15T22:15:14.146Z,80.46
2023-03-15T22:17:45.317Z,80.72
2023-03-15T22:20:16.926Z,80.68
2023-03-15T22:22:47.650Z,80.62
2023-03-15T22:25:16.037Z,80.81
2023-03-15T22:27:45.871Z,80.62
2023-03-15T22:30:14.484Z,80.64
2023-03-15T22:32:45.964Z,80.65
2023-03-15T22:35:16.139Z,80.44
2023-03-15T22:37:44.522Z,80.17
2023-03-15T22:40:16.343Z,80.17
2023-03-15T22:42:46.992Z,80.09
2023-03-15T22:45:20.539Z,80.09
2023-03-15T22:47:49.934Z,79.91
2023-03-15T22:50:18.513Z,79.88
2023-03-15T22:52:47.831Z,79.88
2023-03-15T22:55:18.074Z,79.85
2023-03-15T22:57:47.581Z,79.73
2023-03-15T23:00:17.929Z,79.87
2023-03-15T23:02:50.808Z,79.83
2023-03-15T23:05:19.843Z,79.56
2023-03-15T23:07:48.330Z,79.53
2023-03-15T23:10:16.818Z,79.41
2023-03-15T23:12:46.191Z,79.58
2023-03-15T23:15:15.413Z,79.76
2023-03-15T23:17:46.940Z,80.16
2023-03-15T23:20:17.117Z,80.39
2023-03-15T23:22:45.564Z,80.33
2023-03-15T23:25:15.020Z,80.52
2023-03-15T23:27:43.233Z,80.85
2023-03-15T23:30:13.834Z,80.95
2023-03-15T23:32:42.820Z,80.78
2023-03-15T23:35:15.119Z,81.11
2023-03-15T23:37:45.566Z,81.17
2023-03-15T23:40:15.286Z,81.29
2023-03-15T23:42:45.359Z,81.09
2023-03-15T23:45:15.430Z,81.49
2023-03-15T23:47:47.355Z,81.45
2023-03-15T23:50:17.701Z,81.63
2023-03-15T23:52:45.944Z,81.87
2023-03-15T23:55:14.980Z,81.76
2023-03-15T23:57:43.536Z,81.95
